Almodovar del Rio, Spain
Current Conditions -  °F | °C
As of 11:00 AM on Friday 31 Oct 2014 (Local Time) from LEBA Reporting Station
Clear Clear  
Wind Chill: 66°   Ceiling: Unl
Heat Index: 66°   Visibility: 6mi
Dew Point: 46°   Wind: 9mph
Humidity: 49%   Direction: 90°E
Pressure: 30.18"   Gusts: NA
Location:  37.81°N, 5.02°W
Report Text: LEBA 311000Z 09008KT 060V120 CAVOK 19/08 Q1022
Loading
Personal Weather Stations






























Interactive Weather Map
Tropical Storm Tracking
New forecast layout! Learn more

10-Day Weather Forecast

Advertisements
Track Severe Weather on mobile